Ukiah, CA (95418)

6:49 PM PDT on October 20, 2014 (GMT -0700)
Pine Ridge | Change Station
CLOSE
Current Station
Personal Weather Station
Location: Ukiah, CA
Elevation: 1391 ft
Nearby Weather Stations
4.2 Earthquake: Rio Dell, California (1 day ago)  

Elev 1391 ft 39.12 °N, 123.28 °W | Updated 3 seconds ago

Partly Cloudy
Partly Cloudy
53.2 °F
Feels Like 53.2 °F
N
0.9
Wind Variable Wind from SSE
Gusts 2.0 mph

Today
High -- | Low -- °F
--% Chance of Precip.
Yesterday
High -- | Low -- °F
Precip. -- in
7:27 AM 6:26 PM
Waning Crescent, 8% visible
Pressure 29.95 in
Visibility 10.0 miles
Clouds Few 3700 ft
Dew Point 50 °F
Humidity 90%
Rainfall 0.36 in
Snow Depth Not available.
UV 0 out of 12
Pollen 2.20 out of 12
Air Quality Not available.
Flu Activity Sporadic
METAR KUKI 210056Z AUTO 02003KT 10SM FEW037 16/09 A2997 RMK AO2 RAB05E23 SLP141 P0000 T01560094

More Conditions Fewer Conditions

Pressure 29.95 in
Visibility 10.0 miles
Clouds Few 3700 ft
Dew Point 50 °F
Humidity 90%
Rainfall 0.36 in
Snow Depth Not available.
UV 0 out of 12
Pollen 2.20 out of 12
Air Quality Not available.
Flu Activity Sporadic
METAR KUKI 210056Z AUTO 02003KT 10SM FEW037 16/09 A2997 RMK AO2 RAB05E23 SLP141 P0000 T01560094

More Conditions Fewer Conditions

10-Day Weather Forecast

Almanac

Astronomy

Oct. 20, 2014 Rise Set
Actual Time 7:27 AM PDT 6:26 PM PDT
Civil Twilight 7:00 AM PDT 6:53 PM PDT
Nautical Twilight 6:29 AM PDT 7:25 PM PDT
Astronomical Twilight 5:58 AM PDT 7:56 PM PDT
Moon 4:22 AM PDT (10/20) 4:51 PM PDT (10/20)
Length of Visible Light 11h 53m
Length of Day
10h 59m
Tomorrow will be 2m 25s shorter.
Waning Crescent, 8% of the Moon is Illuminated
Today
Waning Crescent
Oct 23
New
Oct 30
First Quarter
Nov 6
Full
Nov 14
Last Quarter

Today's Extremes

State Highs State Lows

Community

WunderPhotos

Upload Photos

1,763,563 photos uploaded!

Nearby

Snow Depth

Station Depth Elevation
Ward Creek #3 0 in 6750 ft
Tahoe City Cross 0 in 6750 ft
Rubicon #2 0 in 7500 ft
Echo Peak 1 in 7800 ft
Forestdale Creek 0 in 8029 ft

Earthquake Activity

City Distance Mag. Time & Date
Rio Dell, California 98 miles 4.2 7:24 AM PDT
2014-10-19
East Foothills, California 146 miles 2.6 8:16 AM PDT
2014-10-18
Minimum magnitude displayed is 2.5.

Coastal Water Temperatures

Place Temperature
Arena Cove, CA 61.0 °F
North Spit, CA 59.0 °F
Point Reyes, CA 61.0 °F
San Francisco, CA 63.0 °F
Richmond, CA 64.0 °F

Nearby Weather Stations